createdAt,value
2023-02-02T00:02:33.579Z,100068.38
2023-02-02T00:07:36.759Z,100072.75
2023-02-02T00:12:39.965Z,100072.25
2023-02-02T00:17:44.573Z,100074.19
2023-02-02T00:22:47.934Z,100089.31
2023-02-02T00:27:51.038Z,100094.53
2023-02-02T00:32:55.571Z,100084.41
2023-02-02T00:37:58.728Z,100090.34
2023-02-02T00:43:01.995Z,100087.38
2023-02-02T00:48:06.942Z,100082.75
2023-02-02T00:53:10.299Z,100093.25
2023-02-02T00:58:13.599Z,100094.09
2023-02-02T01:03:18.181Z,100098.97
2023-02-02T01:08:21.433Z,100099.41
2023-02-02T01:13:24.699Z,100093.09
2023-02-02T01:18:30.075Z,100089.66
2023-02-02T01:23:34.682Z,100096.19
2023-02-02T01:28:38.362Z,100092.78
2023-02-02T01:33:45.560Z,100083.94
2023-02-02T01:38:49.462Z,100086.47
2023-02-02T01:43:58.894Z,100073.66
2023-02-02T01:49:09.318Z,100075.38
2023-02-02T01:54:18.071Z,100075.88
2023-02-02T01:59:21.466Z,100083.09
2023-02-02T02:04:28.150Z,100088.56
2023-02-02T02:09:33.001Z,100089.75
2023-02-02T02:14:53.607Z,100098.88
2023-02-02T02:21:01.918Z,100106.91
2023-02-02T02:26:38.427Z,100100.50
2023-02-02T02:32:06.142Z,100106.31
2023-02-02T02:37:13.854Z,100123.09
2023-02-02T02:42:21.225Z,100118.88
2023-02-02T02:47:27.248Z,100124.28
2023-02-02T02:52:31.228Z,100123.16
2023-02-02T02:57:45.235Z,100125.16
2023-02-02T03:02:57.413Z,100129.09
2023-02-02T03:08:09.986Z,100122.78
2023-02-02T03:13:17.039Z,100117.28
2023-02-02T03:18:27.458Z,100117.19
2023-02-02T03:23:30.850Z,100119.78
2023-02-02T03:28:34.271Z,100119.03
2023-02-02T03:33:39.855Z,100119.91
2023-02-02T03:38:43.037Z,100124.97
2023-02-02T03:43:46.156Z,100128.34
2023-02-02T03:48:50.683Z,100140.16
2023-02-02T03:53:54.238Z,100151.34
2023-02-02T03:58:57.520Z,100145.97
2023-02-02T04:04:02.168Z,100145.44
2023-02-02T04:09:05.287Z,100156.69
2023-02-02T04:14:08.395Z,100167.16
2023-02-02T04:19:14.102Z,100170.97
2023-02-02T04:24:17.455Z,100178.47
2023-02-02T04:29:20.704Z,100188.53
2023-02-02T04:34:25.282Z,100191.84
2023-02-02T04:39:28.743Z,100200.28
2023-02-02T04:44:31.911Z,100201.75
2023-02-02T04:49:36.333Z,100200.94
2023-02-02T04:54:39.643Z,100205.22
2023-02-02T04:59:42.942Z,100211.66
2023-02-02T05:04:47.882Z,100222.44
2023-02-02T05:09:51.345Z,100227.44
2023-02-02T05:14:54.529Z,100231.59
2023-02-02T05:19:59.119Z,100241.53
2023-02-02T05:25:02.895Z,100255.88
2023-02-02T05:30:07.165Z,100255.66
2023-02-02T05:35:12.726Z,100246.84
2023-02-02T05:40:18.183Z,100254.72
2023-02-02T05:45:21.283Z,100257.69
2023-02-02T05:50:27.692Z,100269.59
2023-02-02T05:55:33.998Z,100281.63
2023-02-02T06:00:37.436Z,100281.72
2023-02-02T06:05:46.065Z,100289.94
2023-02-02T06:10:49.341Z,100292.66
2023-02-02T06:15:55.789Z,100301.91
2023-02-02T06:21:01.643Z,100304.47
2023-02-02T06:26:05.344Z,100306.78
2023-02-02T06:31:10.670Z,100311.88
2023-02-02T06:36:15.878Z,100311.78
2023-02-02T06:41:20.528Z,100308.25
2023-02-02T06:46:23.787Z,100314.00
2023-02-02T06:51:28.343Z,100319.72
2023-02-02T06:56:31.452Z,100327.44
2023-02-02T07:01:34.954Z,100334.00
2023-02-02T07:06:40.857Z,100338.03
2023-02-02T07:11:45.666Z,100331.94
2023-02-02T07:16:49.088Z,100342.09
2023-02-02T07:21:54.370Z,100350.56
2023-02-02T07:26:58.197Z,100370.31
2023-02-02T07:32:02.739Z,100359.00
2023-02-02T07:37:07.682Z,100361.03
2023-02-02T07:42:12.982Z,100369.78
2023-02-02T07:47:17.381Z,100388.91
2023-02-02T07:52:22.194Z,100392.47
2023-02-02T07:57:25.770Z,100390.75
2023-02-02T08:02:29.347Z,100396.97
2023-02-02T08:07:35.992Z,100403.97
2023-02-02T08:12:39.438Z,100406.91
2023-02-02T08:17:46.873Z,100412.41
2023-02-02T08:22:51.346Z,100422.50
2023-02-02T08:27:54.947Z,100423.13
2023-02-02T08:32:58.202Z,100424.88
2023-02-02T08:38:05.383Z,100437.06
2023-02-02T08:43:10.662Z,100441.53
2023-02-02T08:48:17.497Z,100446.09
2023-02-02T08:53:23.668Z,100442.88
2023-02-02T08:58:26.935Z,100447.44
2023-02-02T09:03:30.101Z,100448.69
2023-02-02T09:08:34.765Z,100451.72
2023-02-02T09:13:38.969Z,100451.19
2023-02-02T09:18:44.467Z,100470.41
2023-02-02T09:23:50.554Z,100468.94
2023-02-02T09:28:56.849Z,100475.19
2023-02-02T09:34:03.037Z,100475.59
2023-02-02T09:39:08.696Z,100489.84
2023-02-02T09:44:18.614Z,100493.56
2023-02-02T09:49:26.259Z,100488.75
2023-02-02T09:54:37.056Z,100500.94
2023-02-02T09:59:43.420Z,100497.06
2023-02-02T10:04:51.562Z,100503.63
2023-02-02T10:10:00.455Z,100510.03
2023-02-02T10:15:13.647Z,100515.31
2023-02-02T10:20:28.041Z,100518.00
2023-02-02T10:25:36.580Z,100516.94
2023-02-02T10:30:46.260Z,100514.59
2023-02-02T10:35:58.279Z,100522.31
2023-02-02T10:41:12.889Z,100512.41
2023-02-02T10:46:22.459Z,100516.03
2023-02-02T10:51:29.084Z,100513.06
2023-02-02T10:56:41.610Z,100525.59
2023-02-02T11:01:46.957Z,100532.06
2023-02-02T11:06:53.058Z,100532.94
2023-02-02T11:12:04.912Z,100536.25
2023-02-02T11:17:17.596Z,100539.56
2023-02-02T11:22:32.396Z,100547.88
2023-02-02T11:27:42.336Z,100552.69
2023-02-02T11:32:47.954Z,100552.94
2023-02-02T11:37:59.561Z,100559.59
2023-02-02T11:43:07.606Z,100558.31
2023-02-02T11:48:19.707Z,100571.25
2023-02-02T11:53:28.627Z,100577.28
2023-02-02T11:58:44.962Z,100578.00
2023-02-02T12:03:50.632Z,100584.16
2023-02-02T12:08:58.421Z,100584.00
2023-02-02T12:14:20.516Z,100600.91
2023-02-02T12:19:53.502Z,100602.03
2023-02-02T12:25:00.278Z,100595.50
2023-02-02T12:30:24.518Z,100595.38
2023-02-02T12:35:42.353Z,100599.66
2023-02-02T12:41:05.760Z,100604.66
2023-02-02T12:46:24.111Z,100611.69
2023-02-02T12:51:47.266Z,100610.97
2023-02-02T12:57:00.393Z,100620.19
2023-02-02T13:02:12.599Z,100622.34
2023-02-02T13:07:40.691Z,100631.41
2023-02-02T13:12:47.760Z,100635.31
2023-02-02T13:17:55.907Z,100638.38
2023-02-02T13:23:03.747Z,100630.63
2023-02-02T13:28:13.934Z,100647.09
2023-02-02T13:33:24.454Z,100663.47
2023-02-02T13:38:30.526Z,100678.41
2023-02-02T13:43:44.868Z,100677.97
2023-02-02T13:49:03.257Z,100688.09
2023-02-02T13:54:25.574Z,100692.13
2023-02-02T13:59:52.565Z,100697.94
2023-02-02T14:05:00.277Z,100708.91
2023-02-02T14:10:04.587Z,100697.25
2023-02-02T14:15:13.337Z,100710.06
2023-02-02T14:20:43.813Z,100726.53
2023-02-02T14:26:08.516Z,100733.31
2023-02-02T14:31:27.503Z,100734.66
2023-02-02T14:36:32.636Z,100734.66
2023-02-02T14:42:19.578Z,100740.59
2023-02-02T14:47:56.519Z,100745.31
2023-02-02T14:53:06.369Z,100756.25
2023-02-02T14:58:12.240Z,100764.41
2023-02-02T15:03:47.235Z,100780.66
2023-02-02T15:09:26.630Z,100796.50
2023-02-02T15:14:37.460Z,100805.28
2023-02-02T15:19:43.742Z,100809.22
2023-02-02T15:24:48.566Z,100816.41
2023-02-02T15:29:59.844Z,100823.19
2023-02-02T15:35:06.584Z,100840.69
2023-02-02T15:40:16.464Z,100848.94
2023-02-02T15:45:43.669Z,100864.63
2023-02-02T15:50:51.297Z,100882.94
2023-02-02T15:55:55.934Z,100892.84
2023-02-02T16:01:15.976Z,100903.13
2023-02-02T16:06:20.532Z,100920.91
2023-02-02T16:11:25.013Z,100932.41
2023-02-02T16:16:35.929Z,100938.34
2023-02-02T16:21:45.769Z,100944.31
2023-02-02T16:26:50.273Z,100954.22
2023-02-02T16:31:57.024Z,100966.13
2023-02-02T16:37:29.035Z,100982.47
2023-02-02T16:42:33.721Z,100991.09
2023-02-02T16:47:39.930Z,100994.44
2023-02-02T16:52:54.707Z,100999.16
2023-02-02T16:58:00.200Z,101010.84
2023-02-02T17:03:09.477Z,101017.69
2023-02-02T17:08:14.070Z,101038.31
2023-02-02T17:13:37.340Z,101039.66
2023-02-02T17:18:43.970Z,101042.13
2023-02-02T17:23:49.296Z,101055.53
2023-02-02T17:28:57.659Z,101066.25
2023-02-02T17:34:04.317Z,101066.66
2023-02-02T17:39:10.018Z,101073.94
2023-02-02T17:44:14.707Z,101077.63
2023-02-02T17:49:20.447Z,101082.31
2023-02-02T17:54:23.718Z,101087.84
2023-02-02T17:59:27.618Z,101088.25
2023-02-02T18:04:33.353Z,101096.44
2023-02-02T18:09:36.418Z,101105.19
2023-02-02T18:14:39.808Z,101105.38
2023-02-02T18:19:46.195Z,101099.66
2023-02-02T18:24:49.948Z,101096.38
2023-02-02T18:30:01.359Z,101090.59
2023-02-02T18:35:06.262Z,101097.78
2023-02-02T18:40:11.148Z,101105.78
2023-02-02T18:45:19.981Z,101107.41
2023-02-02T18:50:26.051Z,101107.47
2023-02-02T18:55:29.782Z,101098.06
2023-02-02T19:00:33.382Z,101098.97
2023-02-02T19:05:55.632Z,101096.63
2023-02-02T19:11:01.610Z,101097.59
2023-02-02T19:16:20.892Z,101090.56
2023-02-02T19:21:30.508Z,101099.13
2023-02-02T19:26:39.120Z,101086.31
2023-02-02T19:31:42.886Z,101090.56
2023-02-02T19:36:49.420Z,101086.94
2023-02-02T19:41:55.847Z,101092.22
2023-02-02T19:47:00.088Z,101094.03
2023-02-02T19:52:05.611Z,101098.41
2023-02-02T19:57:18.309Z,101095.00
2023-02-02T20:02:51.043Z,101095.16
2023-02-02T20:08:00.218Z,101093.72
2023-02-02T20:13:17.686Z,101104.09
2023-02-02T20:18:23.819Z,101119.53
2023-02-02T20:23:40.813Z,101123.00
2023-02-02T20:28:46.588Z,101137.56
2023-02-02T20:33:52.583Z,101123.59
2023-02-02T20:38:57.695Z,101132.06
2023-02-02T20:44:05.009Z,101129.63
2023-02-02T20:49:08.677Z,101123.44
2023-02-02T20:54:14.080Z,101119.25
2023-02-02T20:59:17.452Z,101115.66
2023-02-02T21:04:22.434Z,101112.09
2023-02-02T21:09:28.804Z,101095.75
2023-02-02T21:14:32.168Z,101100.66
2023-02-02T21:19:35.475Z,101100.75
2023-02-02T21:24:41.132Z,101090.53
2023-02-02T21:29:44.287Z,101095.63
2023-02-02T21:34:47.389Z,101095.75
2023-02-02T21:39:56.819Z,101105.19
2023-02-02T21:45:21.923Z,101099.84
2023-02-02T21:50:29.622Z,101089.63
2023-02-02T21:55:38.018Z,101096.47
2023-02-02T22:00:41.141Z,101086.00
2023-02-02T22:05:45.587Z,101094.66
2023-02-02T22:10:49.110Z,101097.16
2023-02-02T22:15:53.985Z,101076.16
2023-02-02T22:20:58.755Z,101080.53
2023-02-02T22:26:12.619Z,101072.97
2023-02-02T22:31:15.785Z,101069.53
2023-02-02T22:36:20.393Z,101059.44
2023-02-02T22:41:23.674Z,101050.72
2023-02-02T22:46:26.969Z,101041.28
2023-02-02T22:51:31.659Z,101036.66
2023-02-02T22:56:35.091Z,101044.28
2023-02-02T23:01:38.280Z,101044.22
2023-02-02T23:06:43.119Z,101043.53
2023-02-02T23:11:49.148Z,101051.38
2023-02-02T23:16:52.630Z,101055.03
2023-02-02T23:21:57.669Z,101059.06
2023-02-02T23:27:00.970Z,101060.06
2023-02-02T23:32:04.485Z,101043.91
2023-02-02T23:37:09.136Z,101039.03
2023-02-02T23:42:12.754Z,101029.06
2023-02-02T23:47:16.461Z,101027.44
2023-02-02T23:52:21.745Z,101020.91
2023-02-02T23:57:25.486Z,101016.69
